GSM weather

Qeshm International Airport
Qeshm, Hormozgan Province, Iran

Public forecast

Using degrees Celsius for public forecast. Weather courtesy of forecast.io.

METAR (pilot weather report)

Closest report is Dayrestan Airport, 0.0 nm (0.0 km) SE. Retrieved 2018/06/21 01:00 UTC (49 minutes ago):

OIKQ 210100Z 26008KT 2000 BR NSC 29/29 Q0998

TAF (pilot weather forecast)

Forecast is more than 12 hours old.

Closest forecast is Dayrestan Airport, 0.0 nm (0.0 km) SE. Retrieved 2018/01/30 06:39 UTC (5 months ago):

TAF OIKQ 300530Z 3006/3112 06003MPS 9999 FEW030 BECMG 3010/3012 24008MPS BECMG 3105/3107 24003M